createdAt,value
2023-12-23T00:00:15.480Z,7.30
2023-12-23T00:04:16.648Z,7.00
2023-12-23T00:08:17.884Z,6.70
2023-12-23T00:12:19.006Z,7.40
2023-12-23T00:16:20.416Z,6.90
2023-12-23T00:20:21.497Z,7.10
2023-12-23T00:24:24.722Z,6.90
2023-12-23T00:28:25.752Z,7.10
2023-12-23T00:32:27.362Z,6.70
2023-12-23T00:36:28.555Z,6.50
2023-12-23T00:40:29.730Z,6.50
2023-12-23T00:44:30.976Z,6.60
2023-12-23T00:48:32.211Z,6.90
2023-12-23T00:52:33.451Z,6.20
2023-12-23T00:56:34.649Z,6.60
2023-12-23T01:00:35.800Z,7.00
2023-12-23T01:04:36.811Z,6.90
2023-12-23T01:08:38.036Z,7.30
2023-12-23T01:12:40.070Z,6.10
2023-12-23T01:16:41.278Z,6.70
2023-12-23T01:20:42.993Z,6.70
2023-12-23T01:24:44.044Z,7.10
2023-12-23T01:28:45.307Z,7.30
2023-12-23T01:32:46.948Z,7.20
2023-12-23T01:36:48.020Z,7.00
2023-12-23T01:40:49.228Z,6.80
2023-12-23T01:44:50.326Z,6.70
2023-12-23T01:48:51.755Z,6.80
2023-12-23T01:52:55.890Z,7.10
2023-12-23T01:56:58.437Z,6.70
2023-12-23T02:00:59.657Z,6.80
2023-12-23T02:05:00.856Z,6.30
2023-12-23T02:09:03.141Z,7.50
2023-12-23T02:13:28.557Z,7.70
2023-12-23T02:17:29.756Z,7.60
2023-12-23T02:21:31.005Z,6.70
2023-12-23T02:25:32.763Z,7.10
2023-12-23T02:29:34.406Z,8.10
2023-12-23T02:33:35.821Z,7.10
2023-12-23T02:37:37.068Z,7.10
2023-12-23T02:41:38.205Z,6.60
2023-12-23T02:45:39.197Z,7.40
2023-12-23T02:49:40.262Z,7.80
2023-12-23T02:53:41.309Z,7.40
2023-12-23T02:57:42.470Z,7.30
2023-12-23T03:01:43.503Z,7.90
2023-12-23T03:05:44.578Z,7.80
2023-12-23T03:09:45.676Z,7.80
2023-12-23T03:13:46.868Z,7.10
2023-12-23T03:17:48.066Z,8.10
2023-12-23T03:21:52.137Z,7.90
2023-12-23T03:25:53.357Z,7.60
2023-12-23T03:29:54.471Z,7.80
2023-12-23T03:33:55.721Z,7.80
2023-12-23T03:37:56.838Z,7.40
2023-12-23T03:41:58.162Z,7.70
2023-12-23T03:45:59.474Z,7.30
2023-12-23T03:50:01.728Z,7.90
2023-12-23T03:54:03.342Z,7.60
2023-12-23T03:58:04.787Z,7.30
2023-12-23T04:02:05.986Z,7.40
2023-12-23T04:06:06.955Z,6.80
2023-12-23T04:10:08.594Z,7.50
2023-12-23T04:14:09.694Z,7.10
2023-12-23T04:18:11.066Z,7.10
2023-12-23T04:22:12.085Z,7.40
2023-12-23T04:26:15.243Z,7.60
2023-12-23T04:30:16.490Z,7.70
2023-12-23T04:34:17.755Z,7.70
2023-12-23T04:38:18.766Z,7.70
2023-12-23T04:42:20.011Z,7.30
2023-12-23T04:46:21.159Z,7.50
2023-12-23T04:50:22.488Z,7.40
2023-12-23T04:54:23.712Z,7.40
2023-12-23T04:58:24.879Z,7.60
2023-12-23T05:02:26.843Z,7.40
2023-12-23T05:06:28.076Z,7.50
2023-12-23T05:10:29.239Z,7.60
2023-12-23T05:14:30.395Z,7.60
2023-12-23T05:18:31.458Z,7.40
2023-12-23T05:22:32.854Z,7.60
2023-12-23T05:26:34.037Z,8.20
2023-12-23T05:30:36.079Z,7.30
2023-12-23T05:34:37.810Z,7.60
2023-12-23T05:38:38.859Z,7.10
2023-12-23T05:42:40.055Z,7.60
2023-12-23T05:46:42.684Z,7.60
2023-12-23T05:50:43.897Z,7.40
2023-12-23T05:54:44.895Z,7.40
2023-12-23T05:58:45.976Z,7.30
2023-12-23T06:02:47.260Z,7.60
2023-12-23T06:06:48.332Z,7.60
2023-12-23T06:10:57.368Z,7.70
2023-12-23T06:14:54.220Z,7.30
2023-12-23T06:18:55.299Z,7.80
2023-12-23T06:22:56.527Z,7.50
2023-12-23T06:26:57.647Z,7.70
2023-12-23T06:30:58.897Z,8.00
2023-12-23T06:35:00.754Z,7.80
2023-12-23T06:39:02.025Z,7.80
2023-12-23T06:43:43.059Z,7.90
2023-12-23T06:47:08.021Z,7.80
2023-12-23T06:51:09.252Z,8.00
2023-12-23T06:55:10.268Z,8.00
2023-12-23T06:59:13.374Z,7.40
2023-12-23T07:03:14.670Z,7.30
2023-12-23T07:07:15.931Z,7.40
2023-12-23T07:11:17.929Z,7.50
2023-12-23T07:15:19.064Z,7.80
2023-12-23T07:19:20.651Z,7.50
2023-12-23T07:23:21.804Z,7.80
2023-12-23T07:27:22.906Z,7.50
2023-12-23T07:31:23.940Z,7.50
2023-12-23T07:35:26.192Z,7.80
2023-12-23T07:39:27.431Z,7.40
2023-12-23T07:43:28.650Z,7.70
2023-12-23T07:47:29.928Z,7.80
2023-12-23T07:51:30.891Z,7.50
2023-12-23T07:55:32.433Z,7.50
2023-12-23T07:59:33.587Z,7.60
2023-12-23T08:03:34.887Z,7.90
2023-12-23T08:07:37.095Z,7.40
2023-12-23T08:11:38.194Z,7.60
2023-12-23T08:15:39.318Z,7.50
2023-12-23T08:19:40.322Z,8.00
2023-12-23T08:23:41.458Z,7.60
2023-12-23T08:27:42.679Z,7.80
2023-12-23T08:31:44.821Z,7.60
2023-12-23T08:35:46.121Z,7.90
2023-12-23T08:39:47.259Z,7.60
2023-12-23T08:43:48.428Z,7.90
2023-12-23T08:47:49.925Z,8.10
2023-12-23T08:51:51.664Z,7.60
2023-12-23T08:55:52.702Z,8.00
2023-12-23T08:59:53.786Z,7.70
2023-12-23T09:03:54.964Z,7.80
2023-12-23T09:07:56.535Z,7.70
2023-12-23T09:11:57.754Z,7.70
2023-12-23T09:16:01.858Z,8.00
2023-12-23T09:20:07.583Z,8.30
2023-12-23T09:24:08.569Z,7.90
2023-12-23T09:28:10.005Z,7.80
2023-12-23T09:32:11.066Z,8.10
2023-12-23T09:36:12.625Z,8.20
2023-12-23T09:40:14.370Z,8.10
2023-12-23T09:44:15.498Z,7.70
2023-12-23T09:48:16.882Z,8.10
2023-12-23T09:52:18.176Z,7.80
2023-12-23T09:56:19.431Z,8.30
2023-12-23T10:00:21.376Z,8.00
2023-12-23T10:04:22.544Z,8.00
2023-12-23T10:08:23.858Z,7.90
2023-12-23T10:12:24.984Z,7.90
2023-12-23T10:16:26.231Z,8.40
2023-12-23T10:20:27.424Z,8.80
2023-12-23T10:24:28.770Z,8.40
2023-12-23T10:28:30.600Z,8.30
2023-12-23T10:32:35.584Z,8.30
2023-12-23T10:36:41.715Z,8.50
2023-12-23T10:40:49.323Z,8.00
2023-12-23T10:44:52.163Z,8.20
2023-12-23T10:48:55.353Z,8.10
2023-12-23T10:52:57.935Z,8.40
2023-12-23T10:57:01.757Z,8.70
2023-12-23T11:01:04.698Z,8.20
2023-12-23T11:05:11.247Z,8.30
2023-12-23T11:09:15.326Z,8.30
2023-12-23T11:13:16.570Z,8.20
2023-12-23T11:17:31.452Z,8.70
2023-12-23T11:21:34.663Z,8.40
2023-12-23T11:25:39.511Z,8.90
2023-12-23T11:29:40.644Z,8.70
2023-12-23T11:33:41.868Z,8.30
2023-12-23T11:37:52.844Z,9.00
2023-12-23T11:41:54.343Z,9.10
2023-12-23T11:45:55.659Z,8.90
2023-12-23T11:49:56.761Z,8.80
2023-12-23T11:54:00.423Z,8.60
2023-12-23T11:58:01.349Z,8.40
2023-12-23T12:02:04.710Z,8.60
2023-12-23T12:06:06.507Z,8.60
2023-12-23T12:10:08.269Z,8.60
2023-12-23T12:14:11.837Z,9.10
2023-12-23T12:18:13.143Z,9.10
2023-12-23T12:22:14.569Z,8.50
2023-12-23T12:26:16.197Z,9.00
2023-12-23T12:30:17.545Z,8.80
2023-12-23T12:34:19.028Z,9.00
2023-12-23T12:38:23.880Z,9.00
2023-12-23T12:42:25.603Z,8.30
2023-12-23T12:46:28.690Z,8.80
2023-12-23T12:50:30.133Z,8.40
2023-12-23T12:54:31.819Z,9.10
2023-12-23T12:58:32.829Z,9.20
2023-12-23T13:02:34.558Z,8.90
2023-12-23T13:06:35.897Z,9.30
2023-12-23T13:10:37.030Z,8.70
2023-12-23T13:14:38.402Z,9.10
2023-12-23T13:18:49.284Z,9.00
2023-12-23T13:22:46.777Z,8.90
2023-12-23T13:26:47.204Z,8.90
2023-12-23T13:30:48.437Z,8.60
2023-12-23T13:34:49.660Z,8.80
2023-12-23T13:38:51.192Z,8.80
2023-12-23T13:42:52.680Z,8.80
2023-12-23T13:46:55.976Z,9.10
2023-12-23T13:50:57.255Z,9.00
2023-12-23T13:54:58.897Z,9.00
2023-12-23T13:59:00.287Z,8.90
2023-12-23T14:03:01.524Z,8.90
2023-12-23T14:07:02.935Z,9.10
2023-12-23T14:11:04.475Z,9.10
2023-12-23T14:15:06.445Z,8.60
2023-12-23T14:19:07.655Z,8.60
2023-12-23T14:23:08.950Z,9.20
2023-12-23T14:27:10.157Z,8.90
2023-12-23T14:31:13.485Z,9.20
2023-12-23T14:35:14.711Z,9.30
2023-12-23T14:39:19.692Z,9.40
2023-12-23T14:43:22.947Z,9.20
2023-12-23T14:47:24.299Z,8.90
2023-12-23T14:51:25.663Z,9.00
2023-12-23T14:55:26.680Z,9.20
2023-12-23T14:59:29.843Z,9.40
2023-12-23T15:03:31.066Z,9.10
2023-12-23T15:07:32.012Z,9.20
2023-12-23T15:11:33.230Z,8.70
2023-12-23T15:15:35.146Z,8.80
2023-12-23T15:19:36.403Z,9.00
2023-12-23T15:23:37.613Z,8.60
2023-12-23T15:27:38.721Z,8.90
2023-12-23T15:31:41.779Z,8.60
2023-12-23T15:35:42.831Z,8.70
2023-12-23T15:39:45.933Z,8.70
2023-12-23T15:43:46.992Z,8.80
2023-12-23T15:47:48.336Z,8.40
2023-12-23T15:51:49.462Z,9.40
2023-12-23T15:55:50.501Z,8.50
2023-12-23T15:59:54.690Z,8.20
2023-12-23T16:03:55.983Z,8.60
2023-12-23T16:07:57.185Z,8.50
2023-12-23T16:11:58.412Z,8.60
2023-12-23T16:15:59.487Z,8.70
2023-12-23T16:20:02.481Z,8.90
2023-12-23T16:24:03.925Z,8.30
2023-12-23T16:28:05.919Z,8.90
2023-12-23T16:32:07.097Z,8.80
2023-12-23T16:36:11.128Z,9.10
2023-12-23T16:40:12.609Z,8.70
2023-12-23T16:44:13.631Z,8.70
2023-12-23T16:48:14.688Z,8.60
2023-12-23T16:52:16.173Z,8.80
2023-12-23T16:56:17.365Z,9.00
2023-12-23T17:00:18.786Z,9.00
2023-12-23T17:04:19.964Z,9.10
2023-12-23T17:08:21.300Z,9.00
2023-12-23T17:12:22.457Z,8.60
2023-12-23T17:16:23.553Z,9.30
2023-12-23T17:20:24.913Z,9.10
2023-12-23T17:24:25.968Z,9.00
2023-12-23T17:28:27.418Z,8.80
2023-12-23T17:32:28.620Z,9.10
2023-12-23T17:36:30.197Z,9.20
2023-12-23T17:40:31.454Z,9.50
2023-12-23T17:44:32.484Z,9.10
2023-12-23T17:48:33.653Z,9.50
2023-12-23T17:52:34.710Z,9.40
2023-12-23T17:56:36.427Z,9.50
2023-12-23T18:00:37.440Z,9.60
2023-12-23T18:04:38.798Z,9.40
2023-12-23T18:08:39.912Z,9.60
2023-12-23T18:12:41.065Z,9.60
2023-12-23T18:16:42.243Z,9.40
2023-12-23T18:20:43.586Z,9.90
2023-12-23T18:24:44.837Z,9.30
2023-12-23T18:28:45.780Z,9.60
2023-12-23T18:32:49.402Z,9.30
2023-12-23T18:36:50.758Z,9.50
2023-12-23T18:40:51.951Z,9.20
2023-12-23T18:44:53.205Z,8.60
2023-12-23T18:48:54.198Z,9.30
2023-12-23T18:52:55.713Z,8.90
2023-12-23T18:56:58.755Z,9.20
2023-12-23T19:00:59.977Z,9.70
2023-12-23T19:05:02.332Z,9.10
2023-12-23T19:09:03.602Z,9.40
2023-12-23T19:13:04.624Z,8.90
2023-12-23T19:17:05.895Z,8.90
2023-12-23T19:21:06.980Z,8.90
2023-12-23T19:25:08.482Z,9.20
2023-12-23T19:29:09.635Z,9.30
2023-12-23T19:33:10.953Z,9.30
2023-12-23T19:37:12.254Z,8.70
2023-12-23T19:41:13.847Z,9.60
2023-12-23T19:45:14.998Z,9.00
2023-12-23T19:49:17.598Z,9.80
2023-12-23T19:53:20.085Z,9.50
2023-12-23T19:57:21.416Z,9.20
2023-12-23T20:01:22.704Z,8.90
2023-12-23T20:05:24.030Z,9.60
2023-12-23T20:09:25.204Z,9.20
2023-12-23T20:13:26.351Z,9.40
2023-12-23T20:17:27.451Z,9.20
2023-12-23T20:21:28.903Z,9.10
2023-12-23T20:25:31.071Z,9.20
2023-12-23T20:29:32.232Z,9.30
2023-12-23T20:33:34.009Z,9.50
2023-12-23T20:37:35.100Z,9.70
2023-12-23T20:41:38.930Z,9.50
2023-12-23T20:45:39.762Z,9.30
2023-12-23T20:49:41.306Z,9.40
2023-12-23T20:53:42.589Z,9.90
2023-12-23T20:57:43.667Z,9.50
2023-12-23T21:01:44.880Z,9.40
2023-12-23T21:05:46.111Z,9.40
2023-12-23T21:09:47.122Z,9.70
2023-12-23T21:13:49.003Z,9.50
2023-12-23T21:17:50.174Z,9.50
2023-12-23T21:21:51.697Z,9.90
2023-12-23T21:25:52.736Z,9.70
2023-12-23T21:29:55.811Z,9.10
2023-12-23T21:33:56.982Z,8.80
2023-12-23T21:37:58.142Z,9.20
2023-12-23T21:41:59.301Z,8.70
2023-12-23T21:46:00.468Z,9.10
2023-12-23T21:50:01.550Z,8.80
2023-12-23T21:54:03.226Z,9.10
2023-12-23T21:58:04.504Z,9.20
2023-12-23T22:02:05.585Z,9.40
2023-12-23T22:06:07.094Z,9.60
2023-12-23T22:10:10.724Z,9.10
2023-12-23T22:14:11.840Z,8.80
2023-12-23T22:18:13.120Z,9.50
2023-12-23T22:22:14.320Z,9.20
2023-12-23T22:26:17.450Z,8.70
2023-12-23T22:30:18.759Z,9.00
2023-12-23T22:34:19.975Z,9.20
2023-12-23T22:38:21.023Z,9.20
2023-12-23T22:42:22.021Z,8.70
2023-12-23T22:46:23.046Z,9.20
2023-12-23T22:50:24.112Z,9.30
2023-12-23T22:54:25.149Z,9.20
2023-12-23T22:58:26.259Z,8.80
2023-12-23T23:02:27.681Z,9.10
2023-12-23T23:06:29.257Z,9.30
2023-12-23T23:10:30.904Z,8.90
2023-12-23T23:14:40.411Z,9.10
2023-12-23T23:18:41.867Z,8.80
2023-12-23T23:22:43.084Z,9.60
2023-12-23T23:26:44.102Z,9.30
2023-12-23T23:30:45.269Z,9.00
2023-12-23T23:34:47.570Z,8.90
2023-12-23T23:38:49.210Z,9.70
2023-12-23T23:42:50.406Z,9.30
2023-12-23T23:46:51.770Z,8.30
2023-12-23T23:50:52.795Z,9.10
2023-12-23T23:54:54.583Z,9.30
2023-12-23T23:58:56.316Z,8.90
